Terminal Aerodrome Forecast
Issued by NWS

Home | Current Version | Previous Version | Text Only | Print | Product List | Glossary On
Versions: 1 2 3 4 5 6 7 8 9 10 11 12 13 14 15 16 17 18 19 20 21
000
FTUS46 KOTX 281720
TAFCOE
TAF
KCOE 281720Z 2818/2918 VRB06KT P6SM -SHRA BKN015 OVC025
     FM282000 20007KT P6SM -SHRA BKN025 OVC040
     FM282200 20012KT P6SM -SHRA BKN040 OVC120
     FM290200 19006KT P6SM BKN040 BKN100
     FM290800 17005KT P6SM -RA BKN020 OVC060
     FM291200 15005KT P6SM -RA OVC015=

USA.gov is the U.S. government's official web portal to all federal, state and local government web resources and services.